Time;durP1;ratioP1;P1;durP2;ratioP2;P2;SDS_P1;SDS_P2;PMS_P1;PMS_P2;Temp;Humidity;BMP_temperature;BMP_pressure;BME280_temperature;BME280_humidity;BME280_pressure;Samples;Min_cycle;Max_cycle;Signal;HPM_P1;HPM_P2
2024/04/17 00:00:51;;;;;;;8.07;2.65;;;;;;;6.24;100.00;101175.53;4727065;30;20045;-85
2024/04/17 00:03:17;;;;;;;13.13;2.40;;;;;;;6.23;100.00;101176.47;4697876;30;20048;-84
2024/04/17 00:05:48;;;;;;;7.35;2.35;;;;;;;6.19;100.00;101166.16;4687346;30;20369;-82
2024/04/17 00:08:17;;;;;;;7.95;2.42;;;;;;;6.15;100.00;101177.78;4725298;30;20052;-82
2024/04/17 00:10:43;;;;;;;9.20;2.55;;;;;;;6.14;100.00;101170.84;4684517;30;20049;-85
2024/04/17 00:13:16;;;;;;;10.25;2.60;;;;;;;6.13;100.00;101173.59;4709551;30;20068;-88
2024/04/17 00:15:44;;;;;;;13.82;2.83;;;;;;;6.08;100.00;101173.88;4695808;30;20045;-91
2024/04/17 00:18:10;;;;;;;10.18;3.70;;;;;;;6.16;100.00;101182.09;4727937;30;20053;-87
2024/04/17 00:20:36;;;;;;;14.55;3.85;;;;;;;6.16;100.00;101173.38;4726852;30;20034;-85
2024/04/17 00:23:02;;;;;;;14.45;3.25;;;;;;;6.20;100.00;101174.88;4711355;30;20034;-87
2024/04/17 00:25:27;;;;;;;6.30;2.58;;;;;;;6.21;100.00;101163.44;4730502;30;20045;-81
2024/04/17 00:27:53;;;;;;;11.23;2.63;;;;;;;6.27;100.00;101162.19;4682451;30;20083;-82
2024/04/17 00:30:19;;;;;;;14.10;3.95;;;;;;;6.31;100.00;101163.66;4691094;30;20057;-80
2024/04/17 00:32:48;;;;;;;17.80;2.70;;;;;;;6.36;100.00;101160.75;4715106;30;20052;-83
2024/04/17 00:35:19;;;;;;;10.63;2.30;;;;;;;6.32;100.00;101168.81;4711045;30;20041;-86
2024/04/17 00:37:53;;;;;;;7.30;2.05;;;;;;;6.32;100.00;101171.44;4714079;30;20049;-84
2024/04/17 00:40:19;;;;;;;11.65;1.80;;;;;;;6.25;100.00;101167.53;4717385;30;20041;-86
2024/04/17 00:42:45;;;;;;;9.38;2.00;;;;;;;6.22;100.00;101162.50;4723725;30;20051;-85
2024/04/17 00:45:11;;;;;;;14.18;2.40;;;;;;;6.24;100.00;101160.63;4715655;30;20052;-83
2024/04/17 00:48:27;;;;;;;14.60;2.60;;;;;;;6.28;100.00;101163.88;4722999;30;20718;-87
2024/04/17 00:50:54;;;;;;;10.65;2.08;;;;;;;6.22;100.00;101161.63;4725671;30;20074;-80
2024/04/17 00:53:29;;;;;;;8.65;2.30;;;;;;;6.28;100.00;101159.47;4714095;30;20044;-83
2024/04/17 00:56:18;;;;;;;9.82;2.40;;;;;;;6.27;100.00;101163.06;4715870;30;20480;-87
2024/04/17 00:58:56;;;;;;;9.52;2.58;;;;;;;6.30;100.00;101164.63;4693130;30;20053;-82
2024/04/17 01:01:26;;;;;;;8.98;2.55;;;;;;;6.28;100.00;101164.72;4715172;30;20037;-83
2024/04/17 01:06:58;;;;;;;7.90;2.08;;;;;;;6.24;100.00;101157.16;4733432;30;20037;-82
2024/04/17 01:09:27;;;;;;;8.70;2.63;;;;;;;6.27;100.00;101144.66;4701103;30;20379;-83
2024/04/17 01:11:56;;;;;;;8.90;2.03;;;;;;;6.30;100.00;101156.75;4702686;30;20049;-84
2024/04/17 01:14:22;;;;;;;8.95;2.20;;;;;;;6.31;100.00;101158.41;4716051;30;20155;-82
2024/04/17 01:16:48;;;;;;;10.25;2.08;;;;;;;6.28;100.00;101163.88;4700529;30;20083;-81
2024/04/17 01:19:14;;;;;;;9.90;2.05;;;;;;;6.30;100.00;101162.84;4725227;30;20045;-81
2024/04/17 01:21:42;;;;;;;6.15;1.67;;;;;;;6.27;100.00;101157.81;4715956;30;20037;-86
2024/04/17 01:24:08;;;;;;;12.57;2.08;;;;;;;6.24;100.00;101150.13;4685272;30;20045;-83
2024/04/17 01:26:36;;;;;;;11.75;1.90;;;;;;;6.30;100.00;101149.72;4715992;30;20049;-81
2024/04/17 01:29:02;;;;;;;11.98;1.83;;;;;;;6.30;100.00;101148.88;4694055;30;20069;-82
2024/04/17 01:31:31;;;;;;;8.73;1.40;;;;;;;6.27;100.00;101147.28;4701242;30;20072;-80
2024/04/17 01:33:59;;;;;;;8.32;1.63;;;;;;;6.29;100.00;101147.19;4731254;30;20114;-81
2024/04/17 01:36:25;;;;;;;13.93;2.60;;;;;;;6.27;100.00;101142.03;4695963;30;20053;-83
2024/04/17 01:38:51;;;;;;;10.43;2.08;;;;;;;6.24;100.00;101139.63;4719268;30;20081;-84
2024/04/17 01:41:19;;;;;;;12.90;2.20;;;;;;;6.27;100.00;101144.66;4712331;30;20038;-83
2024/04/17 01:43:45;;;;;;;11.50;1.83;;;;;;;6.29;100.00;101137.50;4713051;30;20041;-84
2024/04/17 01:46:11;;;;;;;9.52;2.20;;;;;;;6.28;100.00;101145.50;4710930;30;20480;-82
2024/04/17 01:48:37;;;;;;;16.00;2.30;;;;;;;6.27;100.00;101146.44;4712945;30;20053;-84
2024/04/17 01:51:03;;;;;;;7.03;1.83;;;;;;;6.30;100.00;101149.72;4714445;30;20033;-85
2024/04/17 01:53:29;;;;;;;16.63;2.65;;;;;;;6.26;100.00;101150.84;4709582;30;20056;-82
2024/04/17 01:55:55;;;;;;;17.60;2.95;;;;;;;6.20;100.00;101146.84;4714456;30;20033;-87
2024/04/17 01:58:21;;;;;;;11.38;2.53;;;;;;;6.22;100.00;101146.75;4728874;30;20060;-86
2024/04/17 02:00:48;;;;;;;12.38;2.70;;;;;;;6.19;100.00;101149.56;4695016;30;20033;-84
2024/04/17 02:03:16;;;;;;;12.27;2.30;;;;;;;6.18;100.00;101153.97;4709789;30;20411;-81
2024/04/17 02:05:41;;;;;;;19.45;2.85;;;;;;;6.08;100.00;101137.13;4708790;30;20056;-83
2024/04/17 02:11:03;;;;;;;14.55;2.33;;;;;;;6.01;100.00;101133.16;4713489;30;20553;-85
2024/04/17 02:13:29;;;;;;;17.38;2.88;;;;;;;5.93;100.00;101120.53;4714989;30;20574;-84
2024/04/17 02:16:03;;;;;;;21.30;1.98;;;;;;;5.94;100.00;101120.44;4728519;30;20037;-84
2024/04/17 02:18:36;;;;;;;19.50;2.58;;;;;;;5.84;100.00;101122.78;4720234;30;20045;-84
2024/04/17 02:21:05;;;;;;;15.30;2.42;;;;;;;5.84;100.00;101130.66;4724020;30;20089;-80
2024/04/17 02:23:31;;;;;;;11.30;2.05;;;;;;;5.84;100.00;101127.22;4714124;30;20467;-82
2024/04/17 02:25:57;;;;;;;12.23;2.30;;;;;;;5.84;100.00;101122.78;4714471;30;20092;-81
2024/04/17 02:28:23;;;;;;;16.50;2.28;;;;;;;5.81;100.00;101125.59;4713380;30;20134;-83
2024/04/17 02:30:49;;;;;;;14.95;1.83;;;;;;;5.81;100.00;101122.97;4715787;30;20123;-83
2024/04/17 02:33:15;;;;;;;8.30;1.85;;;;;;;5.79;100.00;101127.50;4696144;30;20492;-82
2024/04/17 02:35:57;;;;;;;9.20;2.08;;;;;;;5.77;100.00;101126.75;4708864;30;20067;-82
2024/04/17 02:38:23;;;;;;;15.55;1.60;;;;;;;5.78;100.00;101132.84;4694275;30;20495;-80
2024/04/17 02:40:49;;;;;;;10.70;2.28;;;;;;;5.74;100.00;101132.19;4726532;30;20045;-84
2024/04/17 02:43:14;;;;;;;17.20;2.78;;;;;;;5.70;100.00;101126.28;4709788;30;20113;-84
2024/04/17 02:45:40;;;;;;;13.55;2.33;;;;;;;5.75;100.00;101133.03;4708259;30;20075;-83
2024/04/17 02:48:06;;;;;;;15.02;1.67;;;;;;;5.78;100.00;101131.03;4717428;30;20059;-84
2024/04/17 02:50:32;;;;;;;9.20;1.98;;;;;;;5.79;100.00;101129.28;4713529;30;20048;-84
2024/04/17 02:52:58;;;;;;;14.52;2.38;;;;;;;5.80;100.00;101130.94;4726579;30;20115;-83
2024/04/17 02:55:24;;;;;;;11.98;2.35;;;;;;;5.80;100.00;101125.69;4698569;30;20045;-84
2024/04/17 02:57:52;;;;;;;11.63;2.15;;;;;;;5.80;100.00;101123.94;4699884;30;20074;-84
2024/04/17 03:00:19;;;;;;;11.52;1.77;;;;;;;5.77;100.00;101112.78;4713473;30;20045;-83
2024/04/17 03:02:45;;;;;;;20.30;2.85;;;;;;;5.69;100.00;101119.34;4697567;30;20732;-84
2024/04/17 03:05:13;;;;;;;8.48;1.75;;;;;;;5.67;100.00;101115.97;4699796;30;20056;-84
2024/04/17 03:07:39;;;;;;;17.27;3.22;;;;;;;5.66;100.00;101121.31;4713390;30;20045;-86
2024/04/17 03:10:05;;;;;;;15.98;2.28;;;;;;;5.63;100.00;101121.50;4700403;30;20049;-83
2024/04/17 03:12:30;;;;;;;17.25;1.92;;;;;;;5.64;100.00;101129.28;4694095;30;20050;-83
2024/04/17 03:14:56;;;;;;;20.25;2.70;;;;;;;5.60;100.00;101127.81;4715629;30;20105;-84
2024/04/17 03:17:23;;;;;;;13.82;3.13;;;;;;;5.60;100.00;101125.19;4696482;30;20041;-85
2024/04/17 03:19:48;;;;;;;10.68;1.95;;;;;;;5.55;100.00;101130.72;4713270;30;20058;-84
2024/04/17 03:22:14;;;;;;;18.15;2.03;;;;;;;5.55;100.00;101137.72;4728187;30;20068;-85
2024/04/17 03:24:40;;;;;;;18.58;2.17;;;;;;;5.51;100.00;101129.19;4697819;30;20128;-85
2024/04/17 03:27:14;;;;;;;11.85;3.45;;;;;;;5.50;100.00;101132.75;4698539;30;20052;-86
2024/04/17 03:29:45;;;;;;;17.17;2.85;;;;;;;5.56;100.00;101128.91;4709538;30;20394;-85
2024/04/17 03:32:11;;;;;;;9.52;2.28;;;;;;;5.54;100.00;101131.63;4709053;30;20110;-83
2024/04/17 03:34:37;;;;;;;11.02;2.00;;;;;;;5.51;100.00;101128.38;4709026;30;20471;-84
2024/04/17 03:37:02;;;;;;;13.95;2.60;;;;;;;5.50;100.00;101132.75;4710390;30;20048;-85
2024/04/17 03:39:28;;;;;;;11.70;1.88;;;;;;;5.49;100.00;101122.38;4693519;30;20040;-84
2024/04/17 03:41:55;;;;;;;16.67;2.67;;;;;;;5.51;100.00;101123.94;4708883;30;20320;-83
2024/04/17 03:44:21;;;;;;;18.17;2.70;;;;;;;5.46;100.00;101121.59;4711102;30;20518;-83
2024/04/17 03:46:46;;;;;;;11.93;2.10;;;;;;;5.50;100.00;101127.50;4716040;30;20422;-83
2024/04/17 03:49:12;;;;;;;13.80;2.63;;;;;;;5.50;100.00;101137.16;4713877;30;20078;-84
2024/04/17 03:51:38;;;;;;;10.00;2.03;;;;;;;5.46;100.00;101132.09;4698072;30;20041;-84
2024/04/17 03:54:04;;;;;;;15.48;2.10;;;;;;;5.48;100.00;101131.19;4724319;30;20076;-85
2024/04/17 03:56:29;;;;;;;7.13;1.80;;;;;;;5.42;100.00;101138.47;4706671;30;20049;-81
2024/04/17 03:58:55;;;;;;;14.60;2.38;;;;;;;5.42;100.00;101137.63;4696596;30;20041;-83
2024/04/17 04:01:21;;;;;;;13.48;1.92;;;;;;;5.35;100.00;101139.81;4711369;30;20198;-82
2024/04/17 04:03:47;;;;;;;15.80;2.15;;;;;;;5.32;100.00;101137.34;4709313;30;20041;-83
2024/04/17 04:06:13;;;;;;;15.15;2.17;;;;;;;5.31;100.00;101136.50;4697301;30;20052;-84
2024/04/17 04:08:38;;;;;;;18.30;2.40;;;;;;;5.31;100.00;101128.66;4683826;30;20289;-83
2024/04/17 04:11:04;;;;;;;14.75;2.03;;;;;;;5.33;100.00;101120.69;4714543;30;20045;-84
2024/04/17 04:13:30;;;;;;;13.23;1.90;;;;;;;5.33;100.00;101124.16;4724222;30;20045;-83
2024/04/17 04:15:56;;;;;;;14.32;1.85;;;;;;;5.34;100.00;101117.97;4724815;30;20041;-88
2024/04/17 04:18:22;;;;;;;7.63;1.67;;;;;;;5.34;100.00;101132.84;4705305;30;20438;-81
2024/04/17 04:20:47;;;;;;;9.77;1.75;;;;;;;5.32;100.00;101129.47;4708977;30;20107;-82
2024/04/17 04:23:13;;;;;;;9.52;1.73;;;;;;;5.32;100.00;101132.94;4706244;30;20041;-84
2024/04/17 04:25:39;;;;;;;11.68;1.48;;;;;;;5.31;100.00;101133.03;4711921;30;20553;-84
2024/04/17 04:28:05;;;;;;;19.15;2.03;;;;;;;5.27;100.00;101134.16;4712214;30;20096;-84
2024/04/17 04:30:32;;;;;;;13.65;2.05;;;;;;;5.26;100.00;101135.09;4719979;30;20058;-84
2024/04/17 04:32:59;;;;;;;10.80;1.63;;;;;;;5.23;100.00;101130.88;4711962;30;20165;-85
2024/04/17 04:35:25;;;;;;;13.73;2.40;;;;;;;5.17;100.00;101132.09;4710115;30;20119;-83
2024/04/17 04:37:50;;;;;;;10.50;2.03;;;;;;;5.16;100.00;101126.94;4698261;30;20036;-83
2024/04/17 04:40:16;;;;;;;9.30;1.42;;;;;;;5.12;100.00;101126.28;4697994;30;20792;-82
2024/04/17 04:42:42;;;;;;;8.25;1.25;;;;;;;5.14;100.00;101121.81;4697230;30;20472;-83
2024/04/17 04:45:08;;;;;;;7.55;2.25;;;;;;;5.11;100.00;101129.00;4717190;30;20104;-85
2024/04/17 04:47:34;;;;;;;13.68;1.98;;;;;;;5.17;100.00;101132.09;4725977;30;20047;-83
2024/04/17 04:49:59;;;;;;;8.13;1.42;;;;;;;5.17;100.00;101126.88;4712819;30;20045;-83
2024/04/17 04:52:25;;;;;;;13.07;2.08;;;;;;;5.19;100.00;101127.59;4712670;30;20512;-83
2024/04/17 04:54:51;;;;;;;11.98;1.58;;;;;;;5.16;100.00;101122.53;4726400;30;20115;-82
2024/04/17 04:57:19;;;;;;;15.85;2.35;;;;;;;5.19;100.00;101118.91;4709345;30;20082;-86
2024/04/17 04:59:45;;;;;;;9.38;1.50;;;;;;;5.23;100.00;101115.16;4704866;30;20167;-84
2024/04/17 05:02:11;;;;;;;19.17;2.25;;;;;;;5.26;100.00;101116.72;4723440;30;20049;-83
2024/04/17 05:04:37;;;;;;;23.92;2.22;;;;;;;5.25;100.00;101110.66;4701189;30;20040;-85
2024/04/17 05:07:03;;;;;;;7.75;1.67;;;;;;;5.26;100.00;101111.50;4712210;30;20049;-83
2024/04/17 05:09:29;;;;;;;11.57;1.70;;;;;;;5.28;100.00;101104.38;4708414;30;20068;-82
2024/04/17 05:11:54;;;;;;;10.13;1.63;;;;;;;5.29;100.00;101106.91;4694927;30;20515;-83
2024/04/17 05:14:20;;;;;;;11.68;2.03;;;;;;;5.29;100.00;101099.06;4721776;30;20045;-83
2024/04/17 05:16:46;;;;;;;10.85;1.63;;;;;;;5.31;100.00;101102.44;4696099;30;20052;-82
2024/04/17 05:19:12;;;;;;;12.00;1.08;;;;;;;5.35;100.00;101097.84;4699996;30;20048;-83
2024/04/17 05:21:37;;;;;;;13.35;1.88;;;;;;;5.37;100.00;101110.88;4707937;30;20049;-85
2024/04/17 05:24:03;;;;;;;14.50;3.20;;;;;;;5.38;100.00;101105.53;4713225;30;20050;-83
2024/04/17 05:26:29;;;;;;;12.50;2.15;;;;;;;5.36;100.00;101106.53;4712733;30;20586;-83
2024/04/17 05:28:55;;;;;;;12.20;1.58;;;;;;;5.38;100.00;101104.69;4727425;30;20052;-83
2024/04/17 05:31:21;;;;;;;8.95;1.58;;;;;;;5.39;100.00;101108.97;4725463;30;20189;-81
2024/04/17 05:33:47;;;;;;;11.80;1.55;;;;;;;5.39;100.00;101109.81;4706490;30;20176;-85
2024/04/17 05:36:13;;;;;;;17.38;1.58;;;;;;;5.38;100.00;101113.41;4699176;30;20044;-85
2024/04/17 05:38:39;;;;;;;11.45;1.35;;;;;;;5.43;100.00;101119.19;4713246;30;20053;-84
2024/04/17 05:41:05;;;;;;;8.77;1.25;;;;;;;5.39;100.00;101101.97;4728024;30;20402;-86
2024/04/17 05:43:30;;;;;;;15.45;3.03;;;;;;;5.43;100.00;101115.72;4699810;30;20636;-85
2024/04/17 05:45:56;;;;;;;13.40;1.70;;;;;;;5.44;100.00;101113.03;4712688;30;20539;-84
2024/04/17 05:48:22;;;;;;;7.20;1.13;;;;;;;5.49;100.00;101104.88;4713524;30;20134;-85
2024/04/17 05:50:48;;;;;;;14.45;2.92;;;;;;;5.49;100.00;101107.50;4709831;30;20037;-84
2024/04/17 05:53:14;;;;;;;12.32;2.60;;;;;;;5.52;100.00;101109.91;4685237;30;20251;-83
2024/04/17 05:55:40;;;;;;;13.30;1.85;;;;;;;5.55;100.00;101114.97;4708319;30;20041;-83
2024/04/17 05:58:06;;;;;;;15.90;2.65;;;;;;;5.59;100.00;101119.09;4712631;30;20136;-83
2024/04/17 06:00:33;;;;;;;14.40;2.22;;;;;;;5.62;100.00;101114.59;4727338;30;20048;-83
2024/04/17 06:02:58;;;;;;;12.75;1.65;;;;;;;5.65;100.00;101110.00;4723516;30;20140;-83
2024/04/17 06:05:24;;;;;;;10.68;1.55;;;;;;;5.68;100.00;101112.44;4697166;30;20133;-82
2024/04/17 06:07:50;;;;;;;15.82;2.00;;;;;;;5.71;100.00;101109.63;4724264;30;20045;-80
2024/04/17 06:10:16;;;;;;;14.10;2.28;;;;;;;5.73;100.00;101106.06;4685343;30;20628;-83
2024/04/17 06:12:42;;;;;;;21.48;4.82;;;;;;;5.76;100.00;101100.59;4720408;30;20029;-86
2024/04/17 06:15:09;;;;;;;10.73;1.48;;;;;;;5.76;100.00;101103.22;4728378;30;20041;-83
2024/04/17 06:17:35;;;;;;;19.10;2.97;;;;;;;5.77;100.00;101100.50;4709542;30;20451;-83
2024/04/17 06:20:00;;;;;;;19.60;2.78;;;;;;;5.83;100.00;101102.75;4712924;30;20132;-85
2024/04/17 06:22:26;;;;;;;15.88;1.70;;;;;;;5.84;100.00;101104.41;4702657;30;20499;-81
2024/04/17 06:24:54;;;;;;;13.93;1.50;;;;;;;5.90;100.00;101103.22;4711520;30;20045;-84
2024/04/17 06:27:20;;;;;;;9.73;1.70;;;;;;;5.93;100.00;101097.75;4711869;30;20173;-87
2024/04/17 06:29:46;;;;;;;14.40;1.48;;;;;;;5.95;100.00;101100.28;4713079;30;20049;-85
2024/04/17 06:32:12;;;;;;;13.98;1.60;;;;;;;5.97;100.00;101106.28;4714637;30;20053;-83
2024/04/17 06:34:38;;;;;;;12.38;2.38;;;;;;;5.93;100.00;101110.03;4709167;30;20381;-83
2024/04/17 06:37:03;;;;;;;9.43;1.27;;;;;;;5.95;100.00;101114.25;4696707;30;20385;-83
2024/04/17 06:39:30;;;;;;;10.90;1.88;;;;;;;6.02;100.00;101113.88;4722068;30;20068;-82
2024/04/17 06:41:57;;;;;;;10.90;1.77;;;;;;;6.09;100.00;101115.19;4720685;30;20500;-82
2024/04/17 06:44:23;;;;;;;7.70;1.35;;;;;;;6.11;100.00;101122.97;4708172;30;20093;-81
2024/04/17 06:46:49;;;;;;;13.80;1.80;;;;;;;6.12;100.00;101111.50;4708299;30;20051;-84
2024/04/17 06:49:15;;;;;;;14.35;2.10;;;;;;;6.17;100.00;101123.41;4709361;30;20045;-84
2024/04/17 06:51:40;;;;;;;14.23;1.65;;;;;;;6.19;100.00;101133.81;4711594;30;20510;-82
2024/04/17 06:54:06;;;;;;;20.48;2.28;;;;;;;6.22;100.00;101117.88;4705540;30;20062;-83
2024/04/17 06:56:32;;;;;;;16.83;1.95;;;;;;;6.25;100.00;101111.56;4699312;30;20580;-81
2024/04/17 06:58:57;;;;;;;18.30;2.13;;;;;;;6.30;100.00;101117.38;4721618;30;20450;-83
2024/04/17 07:01:23;;;;;;;16.55;1.83;;;;;;;6.28;100.00;101112.22;4707798;30;20033;-83
2024/04/17 07:03:49;;;;;;;12.52;1.70;;;;;;;6.33;100.00;101115.38;4704683;30;20041;-83
2024/04/17 07:06:15;;;;;;;15.10;2.08;;;;;;;6.36;100.00;101114.34;4693514;30;20081;-91
2024/04/17 07:08:41;;;;;;;16.23;2.33;;;;;;;6.41;100.00;101120.13;4726388;30;20079;-82
2024/04/17 07:11:06;;;;;;;16.92;2.65;;;;;;;6.45;100.00;101123.38;4696888;30;20063;-81
2024/04/17 07:13:33;;;;;;;18.08;2.60;;;;;;;6.47;100.00;101123.31;4727141;30;20518;-83
2024/04/17 07:15:58;;;;;;;14.93;3.05;;;;;;;6.49;100.00;101117.00;4705631;30;20160;-83
2024/04/17 07:18:24;;;;;;;10.18;1.40;;;;;;;6.55;100.00;101113.13;4713877;30;20131;-86
2024/04/17 07:20:51;;;;;;;16.15;1.95;;;;;;;6.56;100.00;101112.19;4711744;30;20076;-91
2024/04/17 07:23:19;;;;;;;14.00;3.15;;;;;;;6.56;100.00;101115.66;4711966;30;20147;-87
2024/04/17 07:25:49;;;;;;;17.65;2.08;;;;;;;6.63;100.00;101126.59;4725674;30;20041;-84
2024/04/17 07:28:15;;;;;;;18.67;2.53;;;;;;;6.63;100.00;101112.63;4723114;30;20124;-83
2024/04/17 07:30:41;;;;;;;14.57;2.15;;;;;;;6.64;100.00;101111.69;4696753;30;20572;-81
2024/04/17 07:33:07;;;;;;;12.45;2.10;;;;;;;6.70;100.00;101114.72;4711663;30;20037;-82
2024/04/17 07:35:33;;;;;;;16.02;2.60;;;;;;;6.71;100.00;101110.31;4713635;30;20141;-82
2024/04/17 07:37:59;;;;;;;11.50;2.42;;;;;;;6.74;100.00;101118.00;4713138;30;20041;-82
2024/04/17 07:40:24;;;;;;;10.73;2.58;;;;;;;6.82;100.00;101107.81;4727711;30;20052;-83
2024/04/17 07:42:50;;;;;;;15.88;2.38;;;;;;;6.89;100.00;101108.25;4711704;30;20094;-83
2024/04/17 07:45:16;;;;;;;10.68;1.88;;;;;;;6.92;100.00;101092.28;4713215;30;20067;-83
2024/04/17 07:47:42;;;;;;;8.90;2.05;;;;;;;6.95;100.00;101086.81;4712600;30;20045;-81
2024/04/17 07:50:08;;;;;;;12.23;2.72;;;;;;;7.06;100.00;101085.22;4697806;30;20036;-85
2024/04/17 07:52:34;;;;;;;14.65;2.88;;;;;;;7.20;100.00;101093.00;4696788;30;20044;-82
2024/04/17 07:54:59;;;;;;;15.63;4.13;;;;;;;7.35;100.00;101094.69;4710726;30;20366;-82
2024/04/17 07:57:26;;;;;;;12.15;2.30;;;;;;;7.64;100.00;101095.28;4708975;30;20404;-88
2024/04/17 07:59:51;;;;;;;14.68;2.28;;;;;;;7.69;100.00;101081.78;4684384;30;20045;-83
2024/04/17 08:02:17;;;;;;;15.57;3.17;;;;;;;7.74;100.00;101074.38;4708925;30;20080;-85
2024/04/17 08:04:43;;;;;;;12.32;2.75;;;;;;;7.74;100.00;101082.28;4700648;30;20384;-89
2024/04/17 08:07:09;;;;;;;12.15;2.28;;;;;;;7.74;100.00;101074.38;4714383;30;20044;-83
2024/04/17 08:09:35;;;;;;;13.48;2.70;;;;;;;7.75;100.00;101069.97;4699211;30;20045;-87
2024/04/17 08:12:01;;;;;;;9.07;2.63;;;;;;;7.86;100.00;101064.78;4726013;30;20820;-83
2024/04/17 08:14:29;;;;;;;9.70;2.38;;;;;;;8.01;100.00;101056.72;4689823;30;20067;-83
2024/04/17 08:16:56;;;;;;;7.78;2.35;;;;;;;8.07;100.00;101062.34;4709186;30;20127;-85
2024/04/17 08:19:22;;;;;;;12.55;3.03;;;;;;;8.10;100.00;101063.09;4727494;30;20074;-86
2024/04/17 08:21:47;;;;;;;10.15;2.97;;;;;;;8.19;100.00;101065.03;4729194;30;20415;-91
2024/04/17 08:24:15;;;;;;;11.75;3.20;;;;;;;8.17;100.00;101056.44;4722199;30;20404;-88
2024/04/17 08:26:41;;;;;;;17.40;2.72;;;;;;;8.13;100.00;101050.56;4724979;30;20468;-87
2024/04/17 08:29:07;;;;;;;10.05;2.90;;;;;;;8.13;100.00;101061.09;4713320;30;20061;-84
2024/04/17 08:31:33;;;;;;;9.70;2.65;;;;;;;8.10;100.00;101050.78;4699123;30;20504;-84
2024/04/17 08:33:59;;;;;;;14.43;3.83;;;;;;;8.13;100.00;101053.19;4728891;30;20107;-84
2024/04/17 08:36:25;;;;;;;10.27;3.03;;;;;;;8.15;100.00;101053.91;4698583;30;20045;-84
2024/04/17 08:38:55;;;;;;;13.35;3.50;;;;;;;8.14;100.00;101052.22;4701631;30;20059;-85
2024/04/17 08:41:27;;;;;;;10.65;2.70;;;;;;;8.16;100.00;101054.75;4708718;30;20183;-84
2024/04/17 08:43:58;;;;;;;14.18;2.95;;;;;;;8.16;100.00;101052.97;4713210;30;20037;-86
2024/04/17 08:46:25;;;;;;;9.82;3.10;;;;;;;8.21;100.00;101047.34;4697346;30;20033;-86
2024/04/17 08:48:52;;;;;;;8.95;3.10;;;;;;;8.26;100.00;101037.31;4686558;30;20076;-87
2024/04/17 08:51:23;;;;;;;11.52;3.17;;;;;;;8.39;100.00;101046.94;4714039;30;20081;-85
2024/04/17 08:53:50;;;;;;;14.73;3.95;;;;;;;8.35;100.00;101027.88;4717613;30;20067;-85
2024/04/17 08:56:16;;;;;;;6.72;3.08;;;;;;;8.48;100.00;101032.22;4701820;30;20045;-86
2024/04/17 08:58:45;;;;;;;13.32;4.68;;;;;;;8.44;100.00;101034.25;4732408;30;20037;-87
2024/04/17 09:01:14;;;;;;;8.90;3.45;;;;;;;8.44;100.00;101021.09;4716689;30;20052;-87
2024/04/17 09:03:42;;;;;;;9.98;3.53;;;;;;;8.51;100.00;101019.66;4700348;30;20118;-85
2024/04/17 09:06:09;;;;;;;18.45;4.55;;;;;;;8.51;100.00;101027.56;4719777;30;20472;-88
2024/04/17 09:08:42;;;;;;;6.43;3.38;;;;;;;8.58;100.00;101025.34;4718389;30;20043;-89
2024/04/17 09:11:18;;;;;;;8.95;3.67;;;;;;;8.54;100.00;101018.56;4711443;30;20172;-90
2024/04/17 09:13:47;;;;;;;16.95;5.30;;;;;;;8.53;100.00;101030.94;4716063;30;20131;-88
2024/04/17 09:16:13;;;;;;;9.73;3.85;;;;;;;8.54;100.00;101027.38;4730991;30;20041;-92
2024/04/17 09:18:40;;;;;;;16.92;4.28;;;;;;;8.51;100.00;101024.09;4711282;30;20510;-87
2024/04/17 09:21:09;;;;;;;10.43;4.55;;;;;;;8.52;100.00;101021.31;4716717;30;20049;-85
2024/04/17 09:23:35;;;;;;;15.45;4.00;;;;;;;8.47;100.00;101007.69;4702773;30;20044;-83
2024/04/17 09:26:16;;;;;;;7.00;4.43;;;;;;;8.47;100.00;101017.38;4715849;30;20395;-82
2024/04/17 09:28:45;;;;;;;11.80;4.53;;;;;;;8.38;100.00;101016.25;4727733;30;20048;-89
2024/04/17 09:31:11;;;;;;;13.75;4.68;;;;;;;8.30;100.00;101007.16;4717843;30;20044;-87
2024/04/17 09:33:47;;;;;;;15.48;4.40;;;;;;;8.31;100.00;101018.53;4726998;30;20511;-87
2024/04/17 09:36:13;;;;;;;11.48;4.80;;;;;;;8.22;100.00;101009.50;4712459;30;20653;-88
2024/04/17 09:38:40;;;;;;;11.35;4.40;;;;;;;8.28;100.00;100993.25;4717034;30;20138;-85
2024/04/17 09:41:08;;;;;;;14.15;4.53;;;;;;;8.30;100.00;101007.16;4699329;30;20049;-86
2024/04/17 09:43:45;;;;;;;16.60;5.13;;;;;;;8.32;100.00;101007.03;4702086;30;20037;-84
2024/04/17 09:46:14;;;;;;;12.25;4.28;;;;;;;8.40;100.00;101004.66;4716852;30;20045;-89
2024/04/17 09:48:43;;;;;;;13.90;4.60;;;;;;;8.39;100.00;100997.69;4693538;30;20041;-89
2024/04/17 09:51:14;;;;;;;16.02;6.00;;;;;;;8.48;100.00;100996.19;4716911;30;20547;-85
2024/04/17 09:53:53;;;;;;;14.02;4.75;;;;;;;8.54;100.00;100995.75;4716037;30;20037;-83
2024/04/17 09:56:21;;;;;;;12.55;4.75;;;;;;;8.58;100.00;100990.25;4715661;30;20064;-83
2024/04/17 09:58:49;;;;;;;10.00;4.80;;;;;;;8.60;100.00;100981.25;4730766;30;20037;-87
2024/04/17 10:01:19;;;;;;;15.88;4.35;;;;;;;8.66;100.00;100979.94;4700096;30;20041;-85
2024/04/17 10:03:47;;;;;;;17.23;4.45;;;;;;;8.66;100.00;100990.50;4716429;30;20053;-86
2024/04/17 10:06:13;;;;;;;14.05;4.03;;;;;;;8.65;100.00;100987.00;4715488;30;20059;-86
2024/04/17 10:08:41;;;;;;;13.50;4.15;;;;;;;8.62;100.00;100989.88;4716655;30;20045;-85
2024/04/17 10:11:08;;;;;;;8.93;4.28;;;;;;;8.60;100.00;100980.44;4715955;30;20068;-85
2024/04/17 10:13:35;;;;;;;16.10;4.05;;;;;;;8.55;100.00;100976.34;4716159;30;20095;-89
2024/04/17 10:16:03;;;;;;;11.05;5.10;;;;;;;8.54;100.00;100973.78;4713496;30;20052;-84
2024/04/17 10:18:41;;;;;;;13.13;4.50;;;;;;;8.62;100.00;100987.25;4722397;30;20113;-84
2024/04/17 10:21:16;;;;;;;15.07;4.10;;;;;;;8.57;100.00;100978.84;4712631;30;20112;-87
2024/04/17 10:23:42;;;;;;;16.27;4.55;;;;;;;8.56;100.00;100975.41;4695354;30;20045;-84
2024/04/17 10:26:20;;;;;;;12.23;3.92;;;;;;;8.66;100.00;100977.31;4701353;30;20067;-87
2024/04/17 10:28:51;;;;;;;14.48;4.20;;;;;;;8.70;100.00;100973.47;4715496;30;20041;-91
2024/04/17 10:31:18;;;;;;;14.57;4.40;;;;;;;8.69;100.00;100964.72;4716063;30;20558;-86
2024/04/17 10:33:46;;;;;;;9.88;3.85;;;;;;;8.81;100.00;100975.28;4700834;30;20041;-85
2024/04/17 10:36:14;;;;;;;13.65;4.10;;;;;;;8.89;100.00;100972.88;4729606;30;20116;-88
2024/04/17 10:38:41;;;;;;;12.57;4.20;;;;;;;8.83;100.00;100978.63;4714683;30;20037;-85
2024/04/17 10:41:12;;;;;;;17.80;4.60;;;;;;;8.93;100.00;100986.69;4701831;30;20044;-87
2024/04/17 10:43:39;;;;;;;9.38;3.53;;;;;;;8.92;100.00;100982.34;4711002;30;20041;-87
2024/04/17 10:46:07;;;;;;;18.33;3.83;;;;;;;8.88;100.00;100973.00;4721488;30;20045;-84
2024/04/17 10:49:02;;;;;;;15.35;4.07;;;;;;;8.95;100.00;100984.72;4708781;30;20045;-88
2024/04/17 10:51:31;;;;;;;10.90;3.70;;;;;;;8.88;100.00;100975.66;4712538;30;20066;-87
2024/04/17 10:54:02;;;;;;;20.80;6.18;;;;;;;8.91;100.00;100972.75;4728963;30;20041;-85
2024/04/17 10:56:31;;;;;;;11.07;3.53;;;;;;;8.89;100.00;100966.75;4714028;30;20070;-86
2024/04/17 10:59:00;;;;;;;10.05;4.05;;;;;;;8.93;100.00;100976.94;4712772;30;20121;-85
2024/04/17 11:01:27;;;;;;;14.05;4.53;;;;;;;8.88;100.00;100971.22;4709547;30;20053;-85
2024/04/17 11:03:55;;;;;;;8.93;4.28;;;;;;;8.89;100.00;100964.97;4714581;30;20079;-88
2024/04/17 11:06:21;;;;;;;9.13;3.75;;;;;;;8.90;100.00;100979.81;4704182;30;20438;-88
2024/04/17 11:08:47;;;;;;;11.93;3.75;;;;;;;8.90;100.00;100981.63;4713956;30;20053;-88
2024/04/17 11:11:13;;;;;;;12.25;4.22;;;;;;;8.91;100.00;100976.25;4714563;30;20049;-86
2024/04/17 11:13:43;;;;;;;11.68;4.93;;;;;;;8.95;100.00;100958.38;4711670;30;20515;-83
2024/04/17 11:16:09;;;;;;;8.15;3.78;;;;;;;8.91;100.00;100959.59;4723945;30;20038;-88
2024/04/17 11:18:38;;;;;;;18.55;5.10;;;;;;;8.95;100.00;100954.91;4714694;30;20118;-87
2024/04/17 11:21:04;;;;;;;13.25;3.92;;;;;;;8.94;100.00;100956.69;4713747;30;20503;-86
2024/04/17 11:23:41;;;;;;;7.40;3.40;;;;;;;8.97;100.00;100942.44;4714125;30;20075;-85
2024/04/17 11:26:07;;;;;;;11.43;4.10;;;;;;;8.93;100.00;100944.50;4724937;30;20045;-87